Weather History for KWYS - October, 2014

Change the Weather History Date:

Friday, October 17, 2014

  Actual Average Record
Temperature  
Mean Temperature 36 °F -  
Max Temperature 57 °F 50 °F 57 °F (2014)
Min Temperature 15 °F 21 °F 15 °F (2014)
Degree Days  
Heating Degree Days 29    
Moisture  
Dew Point 22 °F    
Average Humidity 68    
Maximum Humidity 93    
Minimum Humidity 27    
Precipitation  
Precipitation 0.00 in - - ()
Sea Level Pressure  
Sea Level Pressure 30.16 in    
Wind  
Wind Speed 1 mph (SSW)    
Max Wind Speed 13 mph    
Max Gust Speed 18 mph    
Visibility 10 miles    
Events      
Averages and records for this station are not official NWS values.
T = Trace of Precipitation, MM = Missing Value Source: NWS Daily Summary

Daily Weather History Graph

Daily Weather History Graph

Search for Another Location

Airport or City:

Trip Planner

Search our weather history database for the weather conditions in past years. The results will help you decide how hot, cold, wet, or windy it might be!

Date:

Astronomy

Oct. 17, 2014 Rise Set
Actual Time 7:42 AM MDT 6:36 PM MDT
Civil Twilight 7:12 AM MDT 7:05 PM MDT
Nautical Twilight 6:39 AM MDT 7:39 PM MDT
Astronomical Twilight 6:05 AM MDT 8:13 PM MDT
Moon 1:36 AM MDT (10/17) 3:37 PM MDT (10/17)
Length of Visible Light 11h 52m
Length of Day
10h 53m
Waning Crescent, 32% of the Moon is Illuminated
Oct 17
Waning Crescent
Oct 23
New
Oct 30
First Quarter
Nov 6
Full
Nov 14
Last Quarter

Hourly Weather History & Observations

Time (MDT) Temp. Windchill Dew Point Humidity Pressure Visibility Wind Dir Wind Speed Gust Speed Precip Events Conditions
12:15 AM 26.6 °F - 23.0 °F 86% 30.16 in 10.0 mi Calm Calm - N/A   Clear
12:35 AM 26.6 °F - 21.2 °F 80% 30.16 in 10.0 mi Calm Calm - N/A   Clear
12:55 AM 24.8 °F - 21.2 °F 86% 30.16 in 10.0 mi Calm Calm - N/A   Clear
1:15 AM 26.6 °F - 21.2 °F 80% 30.17 in 10.0 mi Calm Calm - N/A   Clear
1:35 AM 24.8 °F - 21.2 °F 86% 30.17 in 10.0 mi Calm Calm - N/A   Clear
1:55 AM 24.8 °F - 21.2 °F 86% 30.17 in 10.0 mi Calm Calm - N/A   Clear
2:15 AM 23.0 °F - 19.4 °F 86% 30.17 in 10.0 mi Calm Calm - N/A   Clear
2:35 AM 23.0 °F - 19.4 °F 86% 30.17 in 10.0 mi Calm Calm - N/A   Clear
2:55 AM 23.0 °F - 19.4 °F 86% 30.17 in 10.0 mi Calm Calm - N/A   Clear
3:15 AM 21.2 °F - 19.4 °F 93% 30.18 in 10.0 mi Calm Calm - N/A   Partly Cloudy
3:35 AM 19.4 °F - 17.6 °F 93% 30.17 in 10.0 mi Calm Calm - N/A   Partly Cloudy
3:55 AM 19.4 °F - 17.6 °F 93% 30.17 in 10.0 mi Calm Calm - N/A   Clear
4:15 AM 19.4 °F - 17.6 °F 93% 30.17 in 10.0 mi Calm Calm - N/A   Clear
4:35 AM 17.6 °F - 15.8 °F 93% 30.17 in 10.0 mi Calm Calm - N/A   Clear
4:55 AM 17.6 °F - 15.8 °F 93% 30.18 in 10.0 mi Calm Calm - N/A   Clear
5:15 AM 17.6 °F - 15.8 °F 93% 30.18 in 10.0 mi Calm Calm - N/A   Clear
5:35 AM 17.6 °F - 15.8 °F 93% 30.18 in 10.0 mi Calm Calm - N/A   Clear
5:55 AM 15.8 °F - 14.0 °F 93% 30.18 in 10.0 mi Calm Calm - N/A   Clear
6:15 AM 15.8 °F - 14.0 °F 93% 30.18 in 10.0 mi Calm Calm - N/A   Clear
6:35 AM 15.8 °F - 14.0 °F 93% 30.18 in 10.0 mi Calm Calm - N/A   Clear
6:55 AM 15.8 °F - 14.0 °F 93% 30.18 in 10.0 mi Calm Calm - N/A   Clear
7:15 AM 15.8 °F - 14.0 °F 93% 30.19 in 10.0 mi Calm Calm - N/A   Clear
7:35 AM 15.8 °F - 14.0 °F 93% 30.19 in 10.0 mi Calm Calm - N/A   Clear
7:55 AM 15.8 °F - 14.0 °F 93% 30.19 in 10.0 mi Calm Calm - N/A   Clear
8:15 AM 17.6 °F - 14.0 °F 86% 30.19 in 10.0 mi Calm Calm - N/A   Clear
8:35 AM 19.4 °F - 17.6 °F 93% 30.20 in 10.0 mi Calm Calm - N/A   Clear
8:55 AM 23.0 °F - 19.4 °F 86% 30.21 in 10.0 mi Calm Calm - N/A   Clear
9:15 AM 26.6 °F - 23.0 °F 86% 30.21 in 10.0 mi Calm Calm - N/A   Clear
9:35 AM 28.4 °F - 23.0 °F 80% 30.21 in 10.0 mi Calm Calm - N/A   Clear
9:55 AM 32.0 °F - 23.0 °F 69% 30.21 in 10.0 mi Calm Calm - N/A   Clear
10:15 AM 32.0 °F - 23.0 °F 69% 30.21 in 10.0 mi Calm Calm - N/A   Clear
10:35 AM 33.8 °F - 23.0 °F 65% 30.21 in 10.0 mi Calm Calm - N/A   Clear
10:55 AM 35.6 °F 32.8 °F 23.0 °F 60% 30.21 in 10.0 mi ENE 3.5 mph - N/A   Clear
11:15 AM 39.2 °F - 23.0 °F 52% 30.20 in 10.0 mi Calm Calm - N/A   Clear
11:35 AM 39.2 °F - 23.0 °F 52% 30.19 in 10.0 mi Calm Calm - N/A   Clear
11:55 AM 42.8 °F 40.1 °F 24.8 °F 49% 30.19 in 10.0 mi NNE 4.6 mph - N/A   Clear
12:15 PM 46.4 °F - 24.8 °F 43% 30.18 in 10.0 mi Calm Calm - N/A   Clear
12:35 PM 46.4 °F 45.2 °F 24.8 °F 43% 30.17 in 10.0 mi NNE 3.5 mph - N/A   Clear
12:55 PM 48.2 °F - 24.8 °F 40% 30.16 in 10.0 mi Calm Calm - N/A   Clear
1:15 PM 50.0 °F - 24.8 °F 37% 30.15 in 10.0 mi NNW 3.5 mph - N/A   Clear
1:35 PM 53.6 °F - 26.6 °F 35% 30.14 in 10.0 mi Calm Calm - N/A   Clear
1:55 PM 53.6 °F - 26.6 °F 35% 30.13 in 10.0 mi Calm Calm - N/A   Clear
2:15 PM 55.4 °F - 24.8 °F 31% 30.13 in 10.0 mi SSW 6.9 mph - N/A   Clear
2:35 PM 55.4 °F - 24.8 °F 31% 30.12 in 10.0 mi SW 10.4 mph - N/A   Clear
2:55 PM 57.2 °F - 23.0 °F 27% 30.12 in 10.0 mi SW 8.1 mph - N/A   Clear
3:15 PM 55.4 °F - 24.8 °F 31% 30.11 in 10.0 mi SSW 9.2 mph 17.3 mph N/A   Clear
3:35 PM 57.2 °F - 24.8 °F 29% 30.11 in 10.0 mi WSW 4.6 mph 16.1 mph N/A   Clear
3:55 PM 57.2 °F - 24.8 °F 29% 30.11 in 10.0 mi SSW 11.5 mph 16.1 mph N/A   Clear
4:15 PM 57.2 °F - 24.8 °F 29% 30.11 in 10.0 mi SW 12.7 mph 16.1 mph N/A   Clear
4:35 PM 57.2 °F - 26.6 °F 31% 30.11 in 10.0 mi SSW 11.5 mph 18.4 mph N/A   Clear
4:55 PM 57.2 °F - 24.8 °F 29% 30.11 in 10.0 mi SW 10.4 mph - N/A   Clear
5:15 PM 57.2 °F - 24.8 °F 29% 30.11 in 10.0 mi SW 10.4 mph - N/A   Clear
5:35 PM 55.4 °F - 24.8 °F 31% 30.11 in 10.0 mi SW 10.4 mph - N/A   Clear
5:55 PM 55.4 °F - 26.6 °F 33% 30.12 in 10.0 mi SW 4.6 mph - N/A   Clear
6:15 PM 51.8 °F - 26.6 °F 38% 30.12 in 10.0 mi SSW 5.8 mph - N/A   Clear
6:35 PM 46.4 °F - 28.4 °F 50% 30.11 in 10.0 mi Calm Calm - N/A   Clear
6:55 PM 44.6 °F - 28.4 °F 53% 30.11 in 10.0 mi Calm Calm - N/A   Clear
7:15 PM 41.0 °F - 28.4 °F 61% 30.12 in 10.0 mi Calm Calm - N/A   Clear
7:35 PM 41.0 °F 39.0 °F 28.4 °F 61% 30.12 in 10.0 mi South 3.5 mph - N/A   Clear
7:55 PM 39.2 °F 37.0 °F 28.4 °F 65% 30.12 in 10.0 mi South 3.5 mph - N/A   Clear
8:15 PM 39.2 °F 35.9 °F 26.6 °F 61% 30.13 in 10.0 mi South 4.6 mph - N/A   Clear
8:35 PM 35.6 °F - 26.6 °F 70% 30.13 in 10.0 mi Calm Calm - N/A   Clear
8:55 PM 35.6 °F - 26.6 °F 70% 30.13 in 10.0 mi Calm Calm - N/A   Clear
9:15 PM 32.0 °F - 24.8 °F 75% 30.13 in 10.0 mi Calm Calm - N/A   Clear
9:35 PM 32.0 °F - 26.6 °F 80% 30.13 in 10.0 mi Calm Calm - N/A   Clear
9:55 PM 32.0 °F - 24.8 °F 75% 30.13 in 10.0 mi Calm Calm - N/A   Clear
10:15 PM 28.4 °F - 24.8 °F 86% 30.14 in 10.0 mi Calm Calm - N/A   Clear
10:35 PM 28.4 °F - 24.8 °F 86% 30.14 in 10.0 mi Calm Calm - N/A   Clear
10:55 PM 28.4 °F - 24.8 °F 86% 30.14 in 10.0 mi Calm Calm - N/A   Clear
11:15 PM 26.6 °F - 24.8 °F 93% 30.14 in 10.0 mi Calm Calm - N/A   Clear
11:35 PM 26.6 °F - 23.0 °F 86% 30.14 in 10.0 mi Calm Calm - N/A   Clear
11:55 PM 26.6 °F 22.6 °F 23.0 °F 86% 30.14 in 10.0 mi SSW 3.5 mph - N/A   Clear